A1 Turki Heliport

TN-0010 · Nabeul, Tunisie

METAR anciennes TN-0010 · A1 Turki Heliport

Tu vois ci-dessous les METAR des derniers jours. Sélectionne une année pour parcourir les METAR plus anciens, à partir de l'année 2007.

12 juillet 2024

Temps Code Temps Temp. Vue Base cloud Vent METAR/SPECI
16:00
V
29 °C 10 km+ - 160° 160° 5 kt METAR DTTL 121500Z 16005KT 080V230 CAVOK 29/23 Q1012
15:00
V
30 °C 10 km+ - Var Var 5 kt METAR DTTL 121400Z VRB05KT CAVOK 30/23 Q1012
14:00
V
31 °C 10 km+ - Var Var 5 kt METAR DTTL 121300Z VRB05KT CAVOK 31/22 Q1012
13:00
V
31 °C 10 km+ - Var Var 3 kt METAR DTTL 121200Z VRB03KT CAVOK 31/21 Q1013
12:00
V
31 °C 10 km+ - 130° 130° 4 kt METAR DTTL 121100Z 13004KT 050V210 CAVOK 31/20 Q1013
11:00
V
31 °C 10 km+ - 140° 140° 4 kt METAR DTTL 121000Z 14004KT 050V200 CAVOK 31/18 Q1013
10:00
V
31 °C 10 km+ - Var Var 2 kt METAR DTTL 120900Z VRB02KT CAVOK 31/19 Q1014
09:00
V
32 °C 10 km+ - Var Var 2 kt METAR DTTL 120800Z VRB02KT CAVOK 32/17 Q1014
08:00
V
31 °C 10 km+ - Var Var 1 kt METAR DTTL 120700Z VRB01KT CAVOK 31/14 Q1014
07:00
V
28 °C 10 km+ - Var Var 1 kt METAR DTTL 120600Z VRB01KT CAVOK 28/13 Q1014
06:00
V
23 °C 10 km+ - 270° 270° 2 kt METAR DTTL 120500Z 27002KT CAVOK 23/15 Q1013
05:00
V
23 °C 10 km+ - Var Var 2 kt METAR DTTL 120400Z VRB02KT CAVOK 23/15 Q1013
04:00
V
23 °C 10 km+ - 260° 260° 3 kt METAR DTTL 120300Z 26003KT CAVOK 23/16 Q1013
03:00
V
23 °C 10 km+ - 230° 230° 2 kt METAR DTTL 120200Z 23002KT CAVOK 23/17 Q1013
01:00
V
24 °C 10 km+ - 360° 360° 0 kt METAR DTTL 120000Z 00000KT CAVOK 24/19 Q1014
00:00
V
24 °C 10 km+ - 260° 260° 3 kt METAR DTTL 112300Z 26003KT 230V300 CAVOK 24/18 Q1015

11 juillet 2024

Temps Code Temps Temp. Vue Base cloud Vent METAR/SPECI
23:00
V
24 °C 10 km+ - Var Var 1 kt METAR DTTL 112200Z VRB01KT CAVOK 24/23 Q1015
22:00
V
26 °C 10 km+ - 010° 010° 3 kt METAR DTTL 112100Z 01003KT 320V060 CAVOK 26/23 Q1015
21:00
V
26 °C 10 km+ - 010° 010° 4 kt METAR DTTL 112000Z 01004KT 330V060 CAVOK 26/21 Q1015
20:00
V
27 °C 10 km+ - 360° 360° 4 kt METAR DTTL 111900Z 36004KT 320V070 CAVOK 27/20 Q1015
19:00
V
30 °C 10 km+ - 360° 360° 4 kt METAR DTTL 111800Z 36004KT 300V090 CAVOK 30/20 Q1015
18:00
V
31 °C 10 km+ - 020° 020° 6 kt METAR DTTL 111700Z 02006KT CAVOK 31/21 Q1015
17:00
V
32 °C 10 km+ - 020° 020° 8 kt METAR DTTL 111600Z 02008KT 320V050 CAVOK 32/20 Q1015
16:00
V
34 °C 10 km+ - 350° 350° 6 kt METAR DTTL 111500Z 35006KT CAVOK 34/17 Q1015
15:00
V
35 °C 10 km+ - Var Var 4 kt METAR DTTL 111400Z VRB04KT CAVOK 35/17 Q1015
14:00
V
34 °C 10 km+ - Var Var 5 kt METAR DTTL 111300Z VRB05KT CAVOK 34/17 Q1015
13:00
V
34 °C 10 km+ - Var Var 4 kt METAR DTTL 111200Z VRB04KT CAVOK 34/19 Q1016
12:00
V
33 °C 10 km+ - Var Var 5 kt METAR DTTL 111100Z VRB05KT CAVOK 33/22 Q1016
10:00
V
31 °C 10 km+ - Var Var 5 kt METAR DTTL 110900Z VRB05KT CAVOK 31/22 Q1016
09:00
V
30 °C 10 km+ - Var Var 5 kt METAR DTTL 110800Z VRB05KT CAVOK 30/22 Q1016
08:00
V
28 °C 10 km+ - Var Var 4 kt METAR DTTL 110700Z VRB04KT CAVOK 28/23 Q1016
07:00
V
25 °C 10 km+ - Var Var 6 kt METAR DTTL 110600Z VRB06KT CAVOK 25/24 Q1016
06:00
V
24 °C 8 km - 290° 290° 5 kt METAR DTTL 110500Z 29005KT 8000 NSC 24/23 Q1015
05:00
V
24 °C 8 km - 300° 300° 5 kt METAR DTTL 110400Z 30005KT 250V010 8000 NSC 24/23 Q1015
04:00
V
24 °C 8 km - 300° 300° 4 kt METAR DTTL 110300Z 30004KT 240V010 8000 NSC 24/23 Q1015
02:00
V
25 °C 8 km - 290° 290° 7 kt METAR DTTL 110100Z 29007KT 240V350 8000 NSC 25/24 Q1016
01:00
V
25 °C 8 km - 290° 290° 5 kt METAR DTTL 110000Z 29005KT 250V360 8000 NSC 25/23 Q1016
00:00
V
25 °C 10 km+ - 300° 300° 5 kt METAR DTTL 102300Z 30005KT 240V020 CAVOK 25/21 Q1016

10 juillet 2024

Temps Code Temps Temp. Vue Base cloud Vent METAR/SPECI
23:00
V
26 °C 10 km+ - Var Var 5 kt METAR DTTL 102200Z VRB05KT CAVOK 26/23 Q1016
22:00
V
26 °C 10 km+ - Var Var 5 kt METAR DTTL 102100Z VRB05KT CAVOK 26/22 Q1016
21:00
V
27 °C 10 km+ - Var Var 4 kt METAR DTTL 102000Z VRB04KT CAVOK 27/22 Q1016
20:00
V
28 °C 10 km+ - 350° 350° 5 kt METAR DTTL 101900Z 35005KT 270V080 CAVOK 28/19 Q1015
19:00
V
29 °C 10 km+ - 350° 350° 6 kt METAR DTTL 101800Z 35006KT 280V080 CAVOK 29/21 Q1015
18:00
V
31 °C 10 km+ - 350° 350° 5 kt METAR DTTL 101700Z 35005KT 290V050 CAVOK 31/22 Q1015
17:00
V
32 °C 10 km+ - 010° 010° 8 kt METAR DTTL 101600Z 01008KT 330V050 CAVOK 32/21 Q1014
16:00
V
33 °C 10 km+ - 010° 010° 8 kt METAR DTTL 101500Z 01008KT 330V050 CAVOK 33/19 Q1014
15:00
V
33 °C 10 km+ - 010° 010° 7 kt METAR DTTL 101400Z 01007KT 310V050 CAVOK 33/21 Q1014
14:00
V
33 °C 10 km+ - 010° 010° 7 kt METAR DTTL 101300Z 01007KT 320V060 CAVOK 33/23 Q1014
13:00
V
32 °C 10 km+ - 020° 020° 7 kt METAR DTTL 101200Z 02007KT 340V050 CAVOK 32/22 Q1015
12:00
V
31 °C 10 km+ - 010° 010° 6 kt METAR DTTL 101100Z 01006KT 300V050 CAVOK 31/24 Q1015
11:00
V
30 °C 10 km+ - 010° 010° 7 kt METAR DTTL 101000Z 01007KT 330V050 CAVOK 30/24 Q1015
09:00
V
29 °C 10 km+ - 010° 010° 5 kt METAR DTTL 100800Z 01005KT 330V050 CAVOK 29/23 Q1015
08:00
V
26 °C 10 km+ - Var Var 2 kt METAR DTTL 100700Z VRB02KT CAVOK 26/24 Q1015
07:00
V
24 °C 10 km+ - 360° 360° 3 kt METAR DTTL 100600Z 36003KT 300V070 CAVOK 24/23 Q1014
Signaler les modifications